K&a Sp — 3FVZ3 — position and weather

sailwx.info

Track history (hours):
 
Tides and Currents Weather Stations Pressure Air Temp Water Temp Dewpoint Dewpoint Depression Visibility Wind Speed Wind Dir Waves Ship Positions

K&a Sp

Last reported at 2016-Aug-21 16:06 UTC. Time now 2016-Aug-25 16:43 UTC.
Position N 01°15' E 104°05'.

Length 177 m; draft 6.7 m.

Type: Cargo ship. MMSI: 354085000.

Date/timePositionNaut miles runAvg speedWind from/ knotsBaromVisibWave heightAir tempDewpointWater temp
2016-Aug-21 16:06N 01°15' E 104°05'610.8
2016-Aug-21 15:33N 01°14' E 103°59'7 6.6
2016-Aug-21 14:33N 01°16' E 103°53'0 0.1
2016-Aug-21 13:32N 01°16' E 103°53'0 0.0
2016-Aug-21 12:32N 01°16' E 103°53'0 0.1
2016-Aug-21 11:32N 01°16' E 103°53'0 0.1
2016-Aug-21 10:32N 01°16' E 103°53'0 0.0
2016-Aug-21 09:32N 01°16' E 103°53'0 0.0
2016-Aug-21 08:32N 01°16' E 103°53'0 0.0
2016-Aug-21 07:32N 01°16' E 103°53'0 0.0
2016-Aug-21 06:32N 01°16' E 103°53'0 0.1
2016-Aug-21 05:26N 01°16' E 103°53'0 0.1
2016-Aug-21 04:32N 01°16' E 103°53'0 0.0
2016-Aug-21 03:32N 01°16' E 103°53'0 0.0
2016-Aug-21 02:32N 01°16' E 103°53'0 0.0
2016-Aug-21 01:32N 01°16' E 103°53'0 0.1
2016-Aug-21 00:32N 01°16' E 103°53'0 0.1
2016-Aug-20 23:08N 01°16' E 103°53'0 0.0
2016-Aug-20 22:26N 01°16' E 103°53'0 0.1
2016-Aug-20 21:20N 01°16' E 103°53'0 0.1
2016-Aug-20 20:32N 01°16' E 103°53'0 0.0
2016-Aug-20 19:32N 01°16' E 103°53'0 0.1
2016-Aug-20 17:32N 01°16' E 103°53'0 0.0
2016-Aug-20 15:26N 01°16' E 103°53'0 0.0
2016-Aug-20 13:32N 01°16' E 103°53'0 0.1
2016-Aug-20 12:20N 01°16' E 103°53'0 0.1
2016-Aug-20 11:32N 01°16' E 103°53'0 0.0
2016-Aug-20 07:20N 01°16' E 103°53'0 0.1
2016-Aug-20 06:14N 01°16' E 103°53'0 0.0
2016-Aug-20 05:32N 01°16' E 103°53'0 0.1
2016-Aug-20 04:14N 01°16' E 103°53'0 0.1
2016-Aug-20 02:26N 01°16' E 103°53'0 0.0
2016-Aug-20 01:26N 01°16' E 103°53'0 0.0
2016-Aug-20 00:23N 01°16' E 103°53'0 0.1
2016-Aug-19 23:32N 01°16' E 103°53'1 0.6
2016-Aug-19 22:33N 01°16' E 103°53'6 5.8
2016-Aug-19 21:30N 01°12' E 103°48'8 7.3
2016-Aug-19 20:28N 01°18' E 103°43'0 0.0
2016-Aug-19 17:11N 01°18' E 103°43'0 0.0
2016-Aug-19 05:26N 01°18' E 103°43'0 0.0
2016-Aug-17 22:32N 01°18' E 103°43'0 0.0
2016-Aug-17 21:23N 01°18' E 103°43'0 0.0
2016-Aug-17 17:26N 01°18' E 103°43'0 0.0
2016-Aug-17 00:14N 01°18' E 103°43'0 0.0
2016-Aug-16 20:32N 01°18' E 103°43'1 0.0
2016-Aug-15 18:32N 01°18' E 103°44'6 5.0
2016-Aug-15 17:16N 01°13' E 103°48'5 5.1
2016-Aug-15 16:18N 01°14' E 103°53'2 3.2
2016-Aug-15 15:32N 01°14' E 103°55'7 7.0
2016-Aug-15 14:33N 01°16' E 104°02'  
Track history (hours):
 
Tides and Currents Weather Stations Pressure Air Temp Water Temp Dewpoint Dewpoint Depression Visibility Wind Speed Wind Dir Waves Ship Positions

K&a Sp

Last reported at 2016-Aug-21 16:06 UTC. Time now 2016-Aug-25 16:43 UTC.
Position N 01°15' E 104°05'.

Length 177 m; draft 6.7 m.

Type: Cargo ship. MMSI: 354085000.

Date/timePositionNaut miles runAvg speedWind from/ knotsBaromVisibWave heightAir tempDewpointWater temp
2016-Aug-21 16:06N 01°15' E 104°05'610.8
2016-Aug-21 15:33N 01°14' E 103°59'7 6.6
2016-Aug-21 14:33N 01°16' E 103°53'0 0.1
2016-Aug-21 13:32N 01°16' E 103°53'0 0.0
2016-Aug-21 12:32N 01°16' E 103°53'0 0.1
2016-Aug-21 11:32N 01°16' E 103°53'0 0.1
2016-Aug-21 10:32N 01°16' E 103°53'0 0.0
2016-Aug-21 09:32N 01°16' E 103°53'0 0.0
2016-Aug-21 08:32N 01°16' E 103°53'0 0.0
2016-Aug-21 07:32N 01°16' E 103°53'0 0.0
2016-Aug-21 06:32N 01°16' E 103°53'0 0.1
2016-Aug-21 05:26N 01°16' E 103°53'0 0.1
2016-Aug-21 04:32N 01°16' E 103°53'0 0.0
2016-Aug-21 03:32N 01°16' E 103°53'0 0.0
2016-Aug-21 02:32N 01°16' E 103°53'0 0.0
2016-Aug-21 01:32N 01°16' E 103°53'0 0.1
2016-Aug-21 00:32N 01°16' E 103°53'0 0.1
2016-Aug-20 23:08N 01°16' E 103°53'0 0.0
2016-Aug-20 22:26N 01°16' E 103°53'0 0.1
2016-Aug-20 21:20N 01°16' E 103°53'0 0.1
2016-Aug-20 20:32N 01°16' E 103°53'0 0.0
2016-Aug-20 19:32N 01°16' E 103°53'0 0.1
2016-Aug-20 17:32N 01°16' E 103°53'0 0.0
2016-Aug-20 15:26N 01°16' E 103°53'0 0.0
2016-Aug-20 13:32N 01°16' E 103°53'0 0.1
2016-Aug-20 12:20N 01°16' E 103°53'0 0.1
2016-Aug-20 11:32N 01°16' E 103°53'0 0.0
2016-Aug-20 07:20N 01°16' E 103°53'0 0.1
2016-Aug-20 06:14N 01°16' E 103°53'0 0.0
2016-Aug-20 05:32N 01°16' E 103°53'0 0.1
2016-Aug-20 04:14N 01°16' E 103°53'0 0.1
2016-Aug-20 02:26N 01°16' E 103°53'0 0.0
2016-Aug-20 01:26N 01°16' E 103°53'0 0.0
2016-Aug-20 00:23N 01°16' E 103°53'0 0.1
2016-Aug-19 23:32N 01°16' E 103°53'1 0.6
2016-Aug-19 22:33N 01°16' E 103°53'6 5.8
2016-Aug-19 21:30N 01°12' E 103°48'8 7.3
2016-Aug-19 20:28N 01°18' E 103°43'0 0.0
2016-Aug-19 17:11N 01°18' E 103°43'0 0.0
2016-Aug-19 05:26N 01°18' E 103°43'0 0.0
2016-Aug-17 22:32N 01°18' E 103°43'0 0.0
2016-Aug-17 21:23N 01°18' E 103°43'0 0.0
2016-Aug-17 17:26N 01°18' E 103°43'0 0.0
2016-Aug-17 00:14N 01°18' E 103°43'0 0.0
2016-Aug-16 20:32N 01°18' E 103°43'1 0.0
2016-Aug-15 18:32N 01°18' E 103°44'6 5.0
2016-Aug-15 17:16N 01°13' E 103°48'5 5.1
2016-Aug-15 16:18N 01°14' E 103°53'2 3.2
2016-Aug-15 15:32N 01°14' E 103°55'7 7.0
2016-Aug-15 14:33N 01°16' E 104°02'  

Dump ship's entire track history